Sovereign — 9HUE9 — position and weather

sailwx.info

Track history (hours):
 
Tides and Currents Weather Stations Pressure Air Temp Water Temp Dewpoint Dewpoint Depression Visibility Wind Speed Wind Dir Waves Ship Positions

Sovereign

Last reported at 2016-May-28 03:32 UTC. Time now 2016-May-28 04:05 UTC.
Position N 41°27' E 002°57'.

Length 268 m; draft 7.7 m.

Type: Passenger vessel. MMSI: 249539000.

Date/timePositionNaut miles runAvg speedWind from/ knotsBaromVisibWave heightAir tempDewpointWater temp
2016-May-28 03:32N 41°27' E 002°57'2016.1
2016-May-28 02:19N 41°38' E 003°18'3015.5
2016-May-28 00:21N 41°55' E 003°52'1415.8
2016-May-27 23:26N 42°04' E 004°08'2115.6
2016-May-27 22:04N 42°16' E 004°31'8016.2
2016-May-27 17:07N 43°04' E 005°58'3 5.4
2016-May-27 16:30N 43°06' E 005°54'0 0.0
2016-May-27 15:33N 43°06' E 005°54'0 0.0
2016-May-27 14:33N 43°06' E 005°54'0 0.0
2016-May-27 13:33N 43°06' E 005°54'0 0.0
2016-May-27 12:33N 43°06' E 005°54'0 0.0
2016-May-27 11:33N 43°06' E 005°54'0 0.0
2016-May-27 10:33N 43°06' E 005°54'0 0.0
2016-May-27 09:33N 43°06' E 005°54'0 0.0
2016-May-27 08:33N 43°06' E 005°54'0 0.0
2016-May-27 07:33N 43°06' E 005°54'2 1.9
2016-May-27 06:33N 43°05' E 005°56'5413.6
2016-May-27 02:33N 43°03' E 007°10'1515.5
2016-May-27 01:33N 43°07' E 007°31'1515.2
2016-May-27 00:33N 43°10' E 007°51'1515.2
2016-May-26 23:33N 43°14' E 008°11'1615.6
2016-May-26 22:33N 43°18' E 008°32'1615.6
2016-May-26 21:33N 43°21' E 008°53'1615.7
2016-May-26 20:33N 43°25' E 009°14'1615.8
2016-May-26 19:33N 43°29' E 009°35'1615.6
2016-May-26 18:33N 43°32' E 009°56'1414.3
2016-May-26 17:33N 43°32' E 010°16'2 1.6
2016-May-26 16:30N 43°33' E 010°18'0 0.0
2016-May-26 15:32N 43°33' E 010°18'0 0.0
2016-May-26 14:29N 43°33' E 010°18'0 0.0
2016-May-26 13:29N 43°33' E 010°18'0 0.0
2016-May-26 12:30N 43°33' E 010°18'0 0.0
2016-May-26 11:30N 43°33' E 010°18'0 0.0
2016-May-26 10:33N 43°33' E 010°18'0 0.0
2016-May-26 09:33N 43°33' E 010°18'0 0.0
2016-May-26 08:30N 43°33' E 010°18'0 0.0
2016-May-26 07:33N 43°33' E 010°18'0 0.0
2016-May-26 06:33N 43°33' E 010°18'0 0.0
2016-May-26 05:33N 43°33' E 010°18'2 2.2
2016-May-26 04:33N 43°32' E 010°16'1111.4
2016-May-26 03:33N 43°21' E 010°10'1413.8
2016-May-26 02:33N 43°08' E 010°05'1414.5
2016-May-26 01:33N 42°54' E 010°00'3214.7
2016-May-25 23:23N 42°27' E 010°23'1315.6
2016-May-25 22:31N 42°14' E 010°29'143 5.9
2016-May-24 22:21N 40°47' E 013°00'1214.7
2016-May-24 21:32N 40°44' E 013°16'1514.7
2016-May-24 20:31N 40°40' E 013°34'1414.6
2016-May-24 19:34N 40°38' E 013°53'1413.7
2016-May-24 18:34N 40°43' E 014°09'8 0.7
2016-May-24 06:19N 40°50' E 014°16'3 4.2
2016-May-24 05:33N 40°47' E 014°15'1615.7
2016-May-24 04:33N 40°37' E 013°59'1715.6
2016-May-24 03:30N 40°30' E 013°40'2016.7
2016-May-24 02:17N 40°33' E 013°14'301 7.8
2016-May-22 11:25N 41°17' E 006°39'10 8.5
2016-May-22 10:16N 41°17' E 006°26'8 8.6
2016-May-22 09:20N 41°17' E 006°16'11 8.8
2016-May-22 08:04N 41°17' E 006°01'5 9.0
2016-May-22 07:33N 41°17' E 005°54'14 9.5
2016-May-22 06:06N 41°17' E 005°36'4411.1
2016-May-22 02:08N 41°17' E 004°37'1011.2
2016-May-22 01:15N 41°17' E 004°24'2111.7
2016-May-21 23:29N 41°17' E 003°56'1111.6
2016-May-21 22:30N 41°16' E 003°41'1111.5
2016-May-21 21:33N 41°16' E 003°27'1111.4
2016-May-21 20:34N 41°16' E 003°12'1211.4
2016-May-21 19:30N 41°16' E 002°56'2412.2
2016-May-21 17:29N 41°16' E 002°23'1010.6
2016-May-21 16:33N 41°19' E 002°10'3 1.0
2016-May-21 13:32N 41°22' E 002°11'0 0.0
2016-May-21 12:32N 41°22' E 002°11'0 0.0
2016-May-21 11:32N 41°22' E 002°11'0 0.0
2016-May-21 10:32N 41°22' E 002°11'0 0.0
2016-May-21 09:32N 41°22' E 002°11'0 0.0
2016-May-21 06:33N 41°22' E 002°11'7 7.0
2016-May-21 05:33N 41°16' E 002°17'1615.7
2016-May-21 04:33N 41°17' E 002°37'1716.4
2016-May-21 03:32N 41°26' E 002°56'1616.5
2016-May-21 02:33N 41°35' E 003°14'1616.5
2016-May-21 01:33N 41°44' E 003°32'1616.4
2016-May-21 00:33N 41°54' E 003°49'3616.6
2016-May-20 22:24N 42°15' E 004°29'1415.8
2016-May-20 21:30N 42°23' E 004°45'1516.0
2016-May-20 20:32N 42°32' E 005°02'3316.1
2016-May-20 18:29N 42°51' E 005°39'2015.0
2016-May-20 17:10N 43°04' E 005°58'4 6.0
2016-May-20 16:33N 43°06' E 005°54'0 0.0
2016-May-20 15:33N 43°06' E 005°54'0 0.0
2016-May-20 14:30N 43°06' E 005°54'0 0.0
2016-May-20 13:33N 43°06' E 005°54'0 0.0
2016-May-20 12:33N 43°06' E 005°54'0 0.0
2016-May-20 11:33N 43°06' E 005°54'0 0.0
2016-May-20 10:33N 43°06' E 005°54'0 0.0
2016-May-20 09:33N 43°06' E 005°54'0 0.0
2016-May-20 08:33N 43°06' E 005°54'0 0.0
2016-May-20 07:33N 43°06' E 005°54'2 1.8
2016-May-20 06:31N 43°05' E 005°56'11714.7
2016-May-19 22:33N 43°18' E 008°36'1616.4
2016-May-19 21:33N 43°22' E 008°57'1716.5
2016-May-19 20:33N 43°26' E 009°19'1616.2
2016-May-19 19:33N 43°29' E 009°41'1514.6
2016-May-19 18:33N 43°31' E 010°01'1212.0
2016-May-19 17:33N 43°33' E 010°17'1 0.7
2016-May-19 16:32N 43°33' E 010°18'0 0.0
2016-May-19 15:33N 43°33' E 010°18'0 0.0
2016-May-19 14:33N 43°33' E 010°18'0 0.0
2016-May-19 13:33N 43°33' E 010°18'0 0.0
2016-May-19 12:33N 43°33' E 010°18'0 0.0
2016-May-19 11:34N 43°33' E 010°18'0 0.0
2016-May-19 10:33N 43°33' E 010°18'0 0.0
2016-May-19 09:33N 43°33' E 010°18'0 0.0
2016-May-19 08:33N 43°33' E 010°18'0 0.0
2016-May-19 07:33N 43°33' E 010°18'0 0.0
2016-May-19 06:33N 43°33' E 010°18'0 0.0
2016-May-19 05:33N 43°33' E 010°18'2 2.3
2016-May-19 04:33N 43°32' E 010°16'1212.1
2016-May-19 03:33N 43°20' E 010°10'1514.8
2016-May-19 02:33N 43°06' E 010°06'  
Track history (hours):
 
Tides and Currents Weather Stations Pressure Air Temp Water Temp Dewpoint Dewpoint Depression Visibility Wind Speed Wind Dir Waves Ship Positions

Sovereign

Last reported at 2016-May-28 03:32 UTC. Time now 2016-May-28 04:05 UTC.
Position N 41°27' E 002°57'.

Length 268 m; draft 7.7 m.

Type: Passenger vessel. MMSI: 249539000.

Date/timePositionNaut miles runAvg speedWind from/ knotsBaromVisibWave heightAir tempDewpointWater temp
2016-May-28 03:32N 41°27' E 002°57'2016.1
2016-May-28 02:19N 41°38' E 003°18'3015.5
2016-May-28 00:21N 41°55' E 003°52'1415.8
2016-May-27 23:26N 42°04' E 004°08'2115.6
2016-May-27 22:04N 42°16' E 004°31'8016.2
2016-May-27 17:07N 43°04' E 005°58'3 5.4
2016-May-27 16:30N 43°06' E 005°54'0 0.0
2016-May-27 15:33N 43°06' E 005°54'0 0.0
2016-May-27 14:33N 43°06' E 005°54'0 0.0
2016-May-27 13:33N 43°06' E 005°54'0 0.0
2016-May-27 12:33N 43°06' E 005°54'0 0.0
2016-May-27 11:33N 43°06' E 005°54'0 0.0
2016-May-27 10:33N 43°06' E 005°54'0 0.0
2016-May-27 09:33N 43°06' E 005°54'0 0.0
2016-May-27 08:33N 43°06' E 005°54'0 0.0
2016-May-27 07:33N 43°06' E 005°54'2 1.9
2016-May-27 06:33N 43°05' E 005°56'5413.6
2016-May-27 02:33N 43°03' E 007°10'1515.5
2016-May-27 01:33N 43°07' E 007°31'1515.2
2016-May-27 00:33N 43°10' E 007°51'1515.2
2016-May-26 23:33N 43°14' E 008°11'1615.6
2016-May-26 22:33N 43°18' E 008°32'1615.6
2016-May-26 21:33N 43°21' E 008°53'1615.7
2016-May-26 20:33N 43°25' E 009°14'1615.8
2016-May-26 19:33N 43°29' E 009°35'1615.6
2016-May-26 18:33N 43°32' E 009°56'1414.3
2016-May-26 17:33N 43°32' E 010°16'2 1.6
2016-May-26 16:30N 43°33' E 010°18'0 0.0
2016-May-26 15:32N 43°33' E 010°18'0 0.0
2016-May-26 14:29N 43°33' E 010°18'0 0.0
2016-May-26 13:29N 43°33' E 010°18'0 0.0
2016-May-26 12:30N 43°33' E 010°18'0 0.0
2016-May-26 11:30N 43°33' E 010°18'0 0.0
2016-May-26 10:33N 43°33' E 010°18'0 0.0
2016-May-26 09:33N 43°33' E 010°18'0 0.0
2016-May-26 08:30N 43°33' E 010°18'0 0.0
2016-May-26 07:33N 43°33' E 010°18'0 0.0
2016-May-26 06:33N 43°33' E 010°18'0 0.0
2016-May-26 05:33N 43°33' E 010°18'2 2.2
2016-May-26 04:33N 43°32' E 010°16'1111.4
2016-May-26 03:33N 43°21' E 010°10'1413.8
2016-May-26 02:33N 43°08' E 010°05'1414.5
2016-May-26 01:33N 42°54' E 010°00'3214.7
2016-May-25 23:23N 42°27' E 010°23'1315.6
2016-May-25 22:31N 42°14' E 010°29'143 5.9
2016-May-24 22:21N 40°47' E 013°00'1214.7
2016-May-24 21:32N 40°44' E 013°16'1514.7
2016-May-24 20:31N 40°40' E 013°34'1414.6
2016-May-24 19:34N 40°38' E 013°53'1413.7
2016-May-24 18:34N 40°43' E 014°09'8 0.7
2016-May-24 06:19N 40°50' E 014°16'3 4.2
2016-May-24 05:33N 40°47' E 014°15'1615.7
2016-May-24 04:33N 40°37' E 013°59'1715.6
2016-May-24 03:30N 40°30' E 013°40'2016.7
2016-May-24 02:17N 40°33' E 013°14'301 7.8
2016-May-22 11:25N 41°17' E 006°39'10 8.5
2016-May-22 10:16N 41°17' E 006°26'8 8.6
2016-May-22 09:20N 41°17' E 006°16'11 8.8
2016-May-22 08:04N 41°17' E 006°01'5 9.0
2016-May-22 07:33N 41°17' E 005°54'14 9.5
2016-May-22 06:06N 41°17' E 005°36'4411.1
2016-May-22 02:08N 41°17' E 004°37'1011.2
2016-May-22 01:15N 41°17' E 004°24'2111.7
2016-May-21 23:29N 41°17' E 003°56'1111.6
2016-May-21 22:30N 41°16' E 003°41'1111.5
2016-May-21 21:33N 41°16' E 003°27'1111.4
2016-May-21 20:34N 41°16' E 003°12'1211.4
2016-May-21 19:30N 41°16' E 002°56'2412.2
2016-May-21 17:29N 41°16' E 002°23'1010.6
2016-May-21 16:33N 41°19' E 002°10'3 1.0
2016-May-21 13:32N 41°22' E 002°11'0 0.0
2016-May-21 12:32N 41°22' E 002°11'0 0.0
2016-May-21 11:32N 41°22' E 002°11'0 0.0
2016-May-21 10:32N 41°22' E 002°11'0 0.0
2016-May-21 09:32N 41°22' E 002°11'0 0.0
2016-May-21 06:33N 41°22' E 002°11'7 7.0
2016-May-21 05:33N 41°16' E 002°17'1615.7
2016-May-21 04:33N 41°17' E 002°37'1716.4
2016-May-21 03:32N 41°26' E 002°56'1616.5
2016-May-21 02:33N 41°35' E 003°14'1616.5
2016-May-21 01:33N 41°44' E 003°32'1616.4
2016-May-21 00:33N 41°54' E 003°49'3616.6
2016-May-20 22:24N 42°15' E 004°29'1415.8
2016-May-20 21:30N 42°23' E 004°45'1516.0
2016-May-20 20:32N 42°32' E 005°02'3316.1
2016-May-20 18:29N 42°51' E 005°39'2015.0
2016-May-20 17:10N 43°04' E 005°58'4 6.0
2016-May-20 16:33N 43°06' E 005°54'0 0.0
2016-May-20 15:33N 43°06' E 005°54'0 0.0
2016-May-20 14:30N 43°06' E 005°54'0 0.0
2016-May-20 13:33N 43°06' E 005°54'0 0.0
2016-May-20 12:33N 43°06' E 005°54'0 0.0
2016-May-20 11:33N 43°06' E 005°54'0 0.0
2016-May-20 10:33N 43°06' E 005°54'0 0.0
2016-May-20 09:33N 43°06' E 005°54'0 0.0
2016-May-20 08:33N 43°06' E 005°54'0 0.0
2016-May-20 07:33N 43°06' E 005°54'2 1.8
2016-May-20 06:31N 43°05' E 005°56'11714.7
2016-May-19 22:33N 43°18' E 008°36'1616.4
2016-May-19 21:33N 43°22' E 008°57'1716.5
2016-May-19 20:33N 43°26' E 009°19'1616.2
2016-May-19 19:33N 43°29' E 009°41'1514.6
2016-May-19 18:33N 43°31' E 010°01'1212.0
2016-May-19 17:33N 43°33' E 010°17'1 0.7
2016-May-19 16:32N 43°33' E 010°18'0 0.0
2016-May-19 15:33N 43°33' E 010°18'0 0.0
2016-May-19 14:33N 43°33' E 010°18'0 0.0
2016-May-19 13:33N 43°33' E 010°18'0 0.0
2016-May-19 12:33N 43°33' E 010°18'0 0.0
2016-May-19 11:34N 43°33' E 010°18'0 0.0
2016-May-19 10:33N 43°33' E 010°18'0 0.0
2016-May-19 09:33N 43°33' E 010°18'0 0.0
2016-May-19 08:33N 43°33' E 010°18'0 0.0
2016-May-19 07:33N 43°33' E 010°18'0 0.0
2016-May-19 06:33N 43°33' E 010°18'0 0.0
2016-May-19 05:33N 43°33' E 010°18'2 2.3
2016-May-19 04:33N 43°32' E 010°16'1212.1
2016-May-19 03:33N 43°20' E 010°10'1514.8
2016-May-19 02:33N 43°06' E 010°06'  

Dump ship's entire track history